createdAt,value
2018-07-09T00:01:30.210Z,73.83
2018-07-09T00:03:58.794Z,74.38
2018-07-09T00:06:27.286Z,74.31
2018-07-09T00:08:55.774Z,74.65
2018-07-09T00:11:24.306Z,74.44
2018-07-09T00:13:53.603Z,75.62
2018-07-09T00:16:22.410Z,76.25
2018-07-09T00:18:51.070Z,77.65
2018-07-09T00:21:20.601Z,78.49
2018-07-09T00:23:50.160Z,77.64
2018-07-09T00:26:18.811Z,78.50
2018-07-09T00:28:47.446Z,78.44
2018-07-09T00:31:16.018Z,78.25
2018-07-09T00:33:44.627Z,78.50
2018-07-09T00:36:13.151Z,78.55
2018-07-09T00:38:41.769Z,78.86
2018-07-09T00:41:10.335Z,78.42
2018-07-09T00:43:38.914Z,78.79
2018-07-09T00:46:07.450Z,79.48
2018-07-09T00:48:36.080Z,79.44
2018-07-09T00:51:04.711Z,79.70
2018-07-09T00:53:33.253Z,79.31
2018-07-09T00:56:01.802Z,78.43
2018-07-09T00:58:30.443Z,78.53
2018-07-09T01:00:59.011Z,78.07
2018-07-09T01:03:27.603Z,78.79
2018-07-09T01:05:56.467Z,78.85
2018-07-09T01:08:24.999Z,79.53
2018-07-09T01:12:06.763Z,79.34
2018-07-09T01:14:39.346Z,79.92
2018-07-09T01:17:07.871Z,79.81
2018-07-09T01:19:36.556Z,80.18
2018-07-09T01:22:05.791Z,80.10
2018-07-09T01:24:34.403Z,80.83
2018-07-09T01:27:05.140Z,80.70
2018-07-09T01:29:34.052Z,81.07
2018-07-09T01:32:02.602Z,81.70
2018-07-09T01:34:31.094Z,81.60
2018-07-09T01:36:59.560Z,82.08
2018-07-09T01:39:28.152Z,82.56
2018-07-09T01:41:56.684Z,82.82
2018-07-09T01:44:25.166Z,84.20
2018-07-09T01:46:53.803Z,84.51
2018-07-09T01:49:22.539Z,83.96
2018-07-09T01:51:50.966Z,83.44
2018-07-09T01:54:19.547Z,83.79
2018-07-09T02:02:42.810Z,86.18
2018-07-09T02:05:11.265Z,86.68
2018-07-09T02:07:39.986Z,87.21
2018-07-09T02:10:08.575Z,88.08
2018-07-09T02:12:37.090Z,88.90
2018-07-09T02:15:05.894Z,88.75
2018-07-09T02:17:34.492Z,88.41
2018-07-09T02:20:03.003Z,88.88
2018-07-09T02:22:31.416Z,89.75
2018-07-09T02:24:59.923Z,90.51
2018-07-09T02:27:28.472Z,90.91
2018-07-09T02:29:57.135Z,89.72
2018-07-09T02:32:25.719Z,90.43
2018-07-09T02:34:54.146Z,91.75
2018-07-09T02:37:22.665Z,91.36
2018-07-09T02:39:51.136Z,91.62
2018-07-09T02:42:19.622Z,91.22
2018-07-09T02:44:48.066Z,91.78
2018-07-09T02:47:16.575Z,91.53
2018-07-09T02:49:45.037Z,92.54
2018-07-09T02:52:13.606Z,93.48
2018-07-09T02:54:42.791Z,93.49
2018-07-09T02:57:11.316Z,93.45
2018-07-09T02:59:39.763Z,94.61
2018-07-09T03:02:08.351Z,94.97
2018-07-09T03:04:37.083Z,94.68
2018-07-09T03:07:05.926Z,95.94
2018-07-09T03:09:34.439Z,94.96
2018-07-09T03:12:03.202Z,94.95
2018-07-09T03:14:31.774Z,95.38
2018-07-09T03:17:00.294Z,95.21
2018-07-09T03:19:28.999Z,94.86
2018-07-09T03:21:58.861Z,94.45
2018-07-09T03:24:27.386Z,94.85
2018-07-09T03:26:56.016Z,93.77
2018-07-09T03:29:24.521Z,93.74
2018-07-09T03:31:53.035Z,93.98
2018-07-09T03:34:21.498Z,94.25
2018-07-09T03:36:49.996Z,94.55
2018-07-09T03:39:18.554Z,93.97
2018-07-09T03:41:47.155Z,93.61
2018-07-09T03:44:15.702Z,93.85
2018-07-09T03:46:44.334Z,94.48
2018-07-09T03:49:12.942Z,94.51
2018-07-09T03:51:41.501Z,96.27
2018-07-09T03:54:09.992Z,95.99
2018-07-09T03:56:38.619Z,95.89
2018-07-09T03:59:07.340Z,95.40
2018-07-09T04:01:36.038Z,95.53
2018-07-09T04:04:04.561Z,96.09
2018-07-09T04:06:33.047Z,95.30
2018-07-09T04:09:01.532Z,95.02
2018-07-09T04:11:29.963Z,95.80
2018-07-09T04:13:58.478Z,95.39
2018-07-09T04:16:26.972Z,94.58
2018-07-09T04:18:55.516Z,94.27
2018-07-09T04:21:24.062Z,94.17
2018-07-09T04:23:52.875Z,94.20
2018-07-09T04:26:21.427Z,94.02
2018-07-09T04:28:50.143Z,94.00
2018-07-09T04:31:18.715Z,93.55
2018-07-09T04:33:47.404Z,93.94
2018-07-09T04:36:15.935Z,93.58
2018-07-09T04:38:44.418Z,91.06
2018-07-09T04:41:12.877Z,90.55
2018-07-09T04:43:41.410Z,90.96
2018-07-09T04:46:09.818Z,90.58
2018-07-09T04:48:38.384Z,89.54
2018-07-09T04:51:06.994Z,89.43
2018-07-09T04:53:35.668Z,89.29
2018-07-09T04:56:04.030Z,89.58
2018-07-09T04:58:32.566Z,88.79
2018-07-09T05:01:01.263Z,89.43
2018-07-09T05:03:29.742Z,89.23
2018-07-09T05:05:58.271Z,87.08
2018-07-09T05:08:26.790Z,86.42
2018-07-09T05:10:55.272Z,86.71
2018-07-09T05:13:23.771Z,85.01
2018-07-09T05:15:52.332Z,84.21
2018-07-09T05:18:20.890Z,83.60
2018-07-09T05:20:49.411Z,83.82
2018-07-09T05:23:18.003Z,82.98
2018-07-09T05:25:46.479Z,83.63
2018-07-09T05:28:15.210Z,83.19
2018-07-09T05:30:43.750Z,81.64
2018-07-09T05:33:12.329Z,81.37
2018-07-09T05:35:40.840Z,80.10
2018-07-09T05:38:09.309Z,80.38
2018-07-09T05:40:37.878Z,79.89
2018-07-09T05:43:06.918Z,79.66
2018-07-09T05:45:35.514Z,79.66
2018-07-09T05:48:04.990Z,79.31
2018-07-09T05:50:33.777Z,79.00
2018-07-09T05:53:02.316Z,78.68
2018-07-09T05:55:30.859Z,78.42
2018-07-09T05:57:59.360Z,78.21
2018-07-09T06:00:27.916Z,77.65
2018-07-09T06:02:56.375Z,77.12
2018-07-09T06:05:24.908Z,77.04
2018-07-09T06:07:53.468Z,76.59
2018-07-09T06:10:21.951Z,75.53
2018-07-09T06:12:50.386Z,75.58
2018-07-09T06:15:18.912Z,74.82
2018-07-09T06:17:47.418Z,73.88
2018-07-09T06:20:15.970Z,73.81
2018-07-09T06:22:44.437Z,73.23
2018-07-09T06:25:12.967Z,74.02
2018-07-09T06:27:41.527Z,72.77
2018-07-09T06:30:10.041Z,70.29
2018-07-09T06:32:38.579Z,68.49
2018-07-09T06:35:07.083Z,67.15
2018-07-09T06:37:36.086Z,68.09
2018-07-09T06:40:04.656Z,67.94
2018-07-09T06:42:33.313Z,67.32
2018-07-09T06:45:01.823Z,67.39
2018-07-09T06:47:30.347Z,66.67
2018-07-09T06:49:59.102Z,66.40
2018-07-09T06:52:27.802Z,66.59
2018-07-09T06:54:56.381Z,67.54
2018-07-09T06:57:24.910Z,66.93
2018-07-09T06:59:53.443Z,66.61
2018-07-09T07:02:22.473Z,66.73
2018-07-09T07:04:51.397Z,64.66
2018-07-09T07:07:19.862Z,63.54
2018-07-09T07:09:48.356Z,62.13
2018-07-09T07:12:17.135Z,62.17
2018-07-09T07:14:45.644Z,61.70
2018-07-09T07:17:14.219Z,61.35
2018-07-09T07:19:42.888Z,59.26
2018-07-09T07:22:11.523Z,59.35
2018-07-09T07:24:40.088Z,60.12
2018-07-09T07:27:08.659Z,61.05
2018-07-09T07:29:37.315Z,61.15
2018-07-09T07:32:05.840Z,60.36
2018-07-09T07:34:34.560Z,60.49
2018-07-09T07:37:03.115Z,60.04
2018-07-09T07:39:31.631Z,59.94
2018-07-09T07:42:00.175Z,60.12
2018-07-09T07:44:28.851Z,59.58
2018-07-09T07:46:57.466Z,59.38
2018-07-09T07:49:25.975Z,58.87
2018-07-09T07:51:54.696Z,58.53
2018-07-09T07:54:23.196Z,56.57
2018-07-09T07:56:52.056Z,55.14
2018-07-09T07:59:20.574Z,55.54
2018-07-09T08:01:49.286Z,55.21
2018-07-09T08:04:17.786Z,55.10
2018-07-09T08:06:46.309Z,54.18
2018-07-09T08:09:14.961Z,53.53
2018-07-09T08:11:48.553Z,52.14
2018-07-09T08:14:12.004Z,52.61
2018-07-09T08:16:40.554Z,52.56
2018-07-09T08:19:09.072Z,52.11
2018-07-09T08:21:37.703Z,50.14
2018-07-09T08:24:06.687Z,49.71
2018-07-09T08:26:35.291Z,50.59
2018-07-09T08:29:04.175Z,47.27
2018-07-09T08:31:32.775Z,47.75
2018-07-09T08:34:01.271Z,47.73
2018-07-09T08:36:29.939Z,46.96
2018-07-09T08:38:58.496Z,46.66
2018-07-09T08:41:26.938Z,46.11
2018-07-09T08:43:55.513Z,46.00
2018-07-09T08:46:24.016Z,45.34
2018-07-09T08:48:52.552Z,46.59
2018-07-09T08:51:21.125Z,46.06
2018-07-09T08:53:49.694Z,45.50
2018-07-09T08:56:18.528Z,45.57
2018-07-09T08:58:47.058Z,45.04
2018-07-09T09:01:15.548Z,43.50
2018-07-09T09:03:44.028Z,41.60
2018-07-09T09:06:12.499Z,42.64
2018-07-09T09:08:45.191Z,42.19
2018-07-09T09:11:13.641Z,41.66
2018-07-09T09:13:42.247Z,41.40
2018-07-09T09:16:10.719Z,40.25
2018-07-09T09:18:39.229Z,40.40
2018-07-09T09:21:08.242Z,39.66
2018-07-09T09:23:36.924Z,39.48
2018-07-09T09:26:05.691Z,39.64
2018-07-09T09:28:34.202Z,39.04
2018-07-09T09:31:02.773Z,37.85
2018-07-09T09:33:31.227Z,38.47
2018-07-09T09:35:59.931Z,37.04
2018-07-09T09:38:28.421Z,35.92
2018-07-09T09:40:56.979Z,37.41
2018-07-09T09:43:25.446Z,35.29
2018-07-09T09:45:53.934Z,34.73
2018-07-09T09:48:22.454Z,33.58
2018-07-09T09:50:50.958Z,32.97
2018-07-09T09:53:19.798Z,32.88
2018-07-09T09:55:48.389Z,33.21
2018-07-09T09:58:16.956Z,32.97
2018-07-09T10:00:51.412Z,31.18
2018-07-09T10:03:20.064Z,29.81
2018-07-09T10:05:49.378Z,29.00
2018-07-09T10:08:17.896Z,29.09
2018-07-09T10:10:46.620Z,26.45
2018-07-09T10:13:15.312Z,27.47
2018-07-09T10:15:43.799Z,26.10
2018-07-09T10:18:12.243Z,25.81
2018-07-09T10:20:40.816Z,24.70
2018-07-09T10:23:09.517Z,25.13
2018-07-09T10:25:37.968Z,25.01
2018-07-09T10:28:06.509Z,24.07
2018-07-09T10:30:35.090Z,25.78
2018-07-09T10:33:03.581Z,25.20
2018-07-09T10:35:32.068Z,25.88
2018-07-09T10:38:00.505Z,24.49
2018-07-09T10:40:29.123Z,23.26
2018-07-09T10:42:57.570Z,24.70
2018-07-09T10:45:26.095Z,23.08
2018-07-09T10:47:54.544Z,23.72
2018-07-09T10:50:23.113Z,24.84
2018-07-09T10:52:51.742Z,22.48
2018-07-09T10:55:20.305Z,21.41
2018-07-09T10:57:48.778Z,22.97
2018-07-09T11:00:17.378Z,21.26
2018-07-09T11:02:45.884Z,21.02
2018-07-09T11:05:14.408Z,20.56
2018-07-09T11:07:42.947Z,20.19
2018-07-09T11:10:11.802Z,19.33
2018-07-09T11:12:40.392Z,20.13
2018-07-09T11:15:08.908Z,20.71
2018-07-09T11:17:37.432Z,19.10
2018-07-09T11:20:06.047Z,19.41
2018-07-09T11:22:34.576Z,20.37
2018-07-09T11:25:03.309Z,20.26
2018-07-09T11:27:31.815Z,20.28
2018-07-09T11:30:00.366Z,19.48
2018-07-09T11:32:33.375Z,18.64
2018-07-09T11:35:01.947Z,19.41
2018-07-09T11:37:30.891Z,18.80
2018-07-09T11:39:59.716Z,19.02
2018-07-09T11:42:28.390Z,18.84
2018-07-09T11:44:56.915Z,18.88
2018-07-09T11:47:25.375Z,18.69
2018-07-09T11:49:53.903Z,17.60
2018-07-09T11:52:23.122Z,17.00
2018-07-09T11:54:52.480Z,18.74
2018-07-09T11:57:21.001Z,18.36
2018-07-09T11:59:49.549Z,16.37
2018-07-09T12:02:18.037Z,17.15
2018-07-09T12:04:46.516Z,17.94
2018-07-09T12:07:14.970Z,17.61
2018-07-09T12:09:43.530Z,18.17
2018-07-09T12:12:12.112Z,17.10
2018-07-09T12:14:40.658Z,16.02
2018-07-09T12:17:09.151Z,14.68
2018-07-09T12:19:37.573Z,14.99
2018-07-09T12:22:06.135Z,14.76
2018-07-09T12:24:34.759Z,15.80
2018-07-09T12:27:03.391Z,15.61
2018-07-09T12:29:31.939Z,15.88
2018-07-09T12:32:00.556Z,15.77
2018-07-09T12:34:29.067Z,16.42
2018-07-09T12:36:57.618Z,15.13
2018-07-09T12:39:26.376Z,15.31
2018-07-09T12:41:54.956Z,15.77
2018-07-09T12:44:23.651Z,15.62
2018-07-09T12:46:52.278Z,15.04
2018-07-09T12:49:20.787Z,14.30
2018-07-09T12:51:49.290Z,15.31
2018-07-09T12:54:17.890Z,14.16
2018-07-09T12:56:46.479Z,13.07
2018-07-09T12:59:15.042Z,13.48
2018-07-09T13:01:43.868Z,14.27
2018-07-09T13:04:12.518Z,14.43
2018-07-09T13:06:41.654Z,14.46
2018-07-09T13:09:10.163Z,12.17
2018-07-09T13:11:38.722Z,14.08
2018-07-09T13:14:07.474Z,13.19
2018-07-09T13:16:36.475Z,12.43
2018-07-09T13:19:05.107Z,12.97
2018-07-09T13:21:33.866Z,13.67
2018-07-09T13:24:02.495Z,11.23
2018-07-09T13:26:30.970Z,11.51
2018-07-09T13:28:59.718Z,11.66
2018-07-09T13:31:28.551Z,12.02
2018-07-09T13:33:57.215Z,11.89
2018-07-09T13:36:26.042Z,11.55
2018-07-09T13:38:54.486Z,11.98
2018-07-09T13:41:22.986Z,12.37
2018-07-09T13:43:51.479Z,11.92
2018-07-09T13:46:20.199Z,11.32
2018-07-09T13:48:48.876Z,11.00
2018-07-09T13:51:17.471Z,11.90
2018-07-09T13:53:46.068Z,11.25
2018-07-09T13:56:16.695Z,13.32
2018-07-09T13:58:45.447Z,13.40
2018-07-09T14:01:13.942Z,11.65
2018-07-09T14:03:42.566Z,11.73
2018-07-09T14:06:11.052Z,12.63
2018-07-09T14:08:39.595Z,11.84
2018-07-09T14:11:08.167Z,12.37
2018-07-09T14:13:36.781Z,12.80
2018-07-09T14:16:05.410Z,10.83
2018-07-09T14:18:34.251Z,10.93
2018-07-09T14:21:02.772Z,11.31
2018-07-09T14:23:31.291Z,10.33
2018-07-09T14:25:59.870Z,10.17
2018-07-09T14:28:28.326Z,10.69
2018-07-09T14:30:56.866Z,10.69
2018-07-09T14:33:25.414Z,11.09
2018-07-09T14:35:54.233Z,10.36
2018-07-09T14:38:22.952Z,10.87
2018-07-09T14:40:51.467Z,11.61
2018-07-09T14:43:20.032Z,10.48
2018-07-09T14:45:48.553Z,11.85
2018-07-09T14:48:17.157Z,10.63
2018-07-09T14:50:46.734Z,10.99
2018-07-09T14:53:15.475Z,11.19
2018-07-09T14:55:43.971Z,9.93
2018-07-09T14:58:12.455Z,9.62
2018-07-09T15:00:40.939Z,10.67
2018-07-09T15:03:09.496Z,10.86
2018-07-09T15:05:38.004Z,9.96
2018-07-09T15:08:06.831Z,10.34
2018-07-09T15:10:35.826Z,10.48
2018-07-09T15:13:04.496Z,11.33
2018-07-09T15:15:33.099Z,10.33
2018-07-09T15:18:01.724Z,11.37
2018-07-09T15:20:30.448Z,13.67
2018-07-09T15:22:58.909Z,12.60
2018-07-09T15:25:27.621Z,12.70
2018-07-09T15:27:56.175Z,13.23
2018-07-09T15:30:24.670Z,11.85
2018-07-09T15:32:53.278Z,10.12
2018-07-09T15:35:21.778Z,10.96
2018-07-09T15:37:50.329Z,11.31
2018-07-09T15:40:18.922Z,11.39
2018-07-09T15:42:47.403Z,12.17
2018-07-09T15:45:15.966Z,13.77
2018-07-09T15:47:44.610Z,11.73
2018-07-09T15:50:13.293Z,11.54
2018-07-09T15:52:41.826Z,12.99
2018-07-09T15:55:10.319Z,14.02
2018-07-09T15:57:38.905Z,14.25
2018-07-09T16:00:07.567Z,14.49
2018-07-09T16:02:36.362Z,17.12
2018-07-09T16:05:04.940Z,16.38
2018-07-09T16:07:33.419Z,15.45
2018-07-09T16:10:02.097Z,13.32
2018-07-09T16:12:30.697Z,13.08
2018-07-09T16:14:59.255Z,13.80
2018-07-09T16:17:27.810Z,13.39
2018-07-09T16:19:56.391Z,17.46
2018-07-09T16:22:25.197Z,17.40
2018-07-09T16:24:53.984Z,15.17
2018-07-09T16:27:22.615Z,13.51
2018-07-09T16:29:51.149Z,12.80
2018-07-09T16:32:19.954Z,11.28
2018-07-09T16:34:48.464Z,13.68
2018-07-09T16:37:17.296Z,16.60
2018-07-09T16:39:45.890Z,19.97
2018-07-09T16:42:14.552Z,22.66
2018-07-09T16:44:43.211Z,21.93
2018-07-09T16:47:11.741Z,22.50
2018-07-09T16:49:40.335Z,23.27
2018-07-09T16:52:09.115Z,23.10
2018-07-09T16:54:37.860Z,22.90
2018-07-09T16:57:06.774Z,23.38
2018-07-09T16:59:35.388Z,21.03
2018-07-09T17:02:03.967Z,15.88
2018-07-09T17:04:32.709Z,16.36
2018-07-09T17:07:01.611Z,17.07
2018-07-09T17:09:30.184Z,20.17
2018-07-09T17:11:58.676Z,20.07
2018-07-09T17:14:27.193Z,17.95
2018-07-09T17:16:55.783Z,17.32
2018-07-09T17:19:24.531Z,17.86
2018-07-09T17:21:53.230Z,15.81
2018-07-09T17:24:21.702Z,14.02
2018-07-09T17:26:50.353Z,14.22
2018-07-09T17:29:18.785Z,12.50
2018-07-09T17:31:47.238Z,13.98
2018-07-09T17:34:15.747Z,15.32
2018-07-09T17:36:44.383Z,15.04
2018-07-09T17:39:12.808Z,15.20
2018-07-09T17:41:41.322Z,15.77
2018-07-09T17:44:09.808Z,16.36
2018-07-09T17:46:38.302Z,17.20
2018-07-09T17:49:06.896Z,19.70
2018-07-09T17:51:35.415Z,22.09
2018-07-09T17:54:05.513Z,24.50
2018-07-09T17:56:34.111Z,26.99
2018-07-09T17:59:02.707Z,27.29
2018-07-09T18:01:31.419Z,28.40
2018-07-09T18:03:59.888Z,28.92
2018-07-09T18:06:28.687Z,30.21
2018-07-09T18:08:57.183Z,31.03
2018-07-09T18:11:25.748Z,31.31
2018-07-09T18:13:54.611Z,32.07
2018-07-09T18:16:23.179Z,32.09
2018-07-09T18:18:51.735Z,32.20
2018-07-09T18:21:20.256Z,32.61
2018-07-09T18:23:48.819Z,32.42
2018-07-09T18:26:17.371Z,32.31
2018-07-09T18:28:45.850Z,32.50
2018-07-09T18:31:14.379Z,32.86
2018-07-09T18:33:42.845Z,33.28
2018-07-09T18:36:11.298Z,33.63
2018-07-09T18:38:40.326Z,34.04
2018-07-09T18:41:08.871Z,33.80
2018-07-09T18:43:37.498Z,34.00
2018-07-09T18:46:06.488Z,35.20
2018-07-09T18:48:35.230Z,35.44
2018-07-09T18:51:03.869Z,36.34
2018-07-09T18:53:32.464Z,35.97
2018-07-09T18:56:00.998Z,36.19
2018-07-09T18:58:29.734Z,36.58
2018-07-09T19:00:58.182Z,37.49
2018-07-09T19:03:26.702Z,37.52
2018-07-09T19:06:37.007Z,37.90
2018-07-09T19:09:06.354Z,38.44
2018-07-09T19:11:35.086Z,38.80
2018-07-09T19:14:03.646Z,39.17
2018-07-09T19:16:36.607Z,40.58
2018-07-09T19:19:16.371Z,40.45
2018-07-09T19:21:57.044Z,40.25
2018-07-09T19:24:24.367Z,40.90
2018-07-09T19:26:51.779Z,41.19
2018-07-09T19:29:19.110Z,41.65
2018-07-09T19:31:46.347Z,41.92
2018-07-09T19:34:13.632Z,42.21
2018-07-09T19:36:40.923Z,43.10
2018-07-09T19:39:08.931Z,43.45
2018-07-09T19:41:36.181Z,42.90
2018-07-09T19:44:03.466Z,43.96
2018-07-09T19:46:30.775Z,44.29
2018-07-09T19:48:58.069Z,43.85
2018-07-09T19:51:25.471Z,44.26
2018-07-09T19:53:52.795Z,45.64
2018-07-09T19:56:20.110Z,45.42
2018-07-09T19:58:47.417Z,47.03
2018-07-09T20:01:15.482Z,46.49
2018-07-09T20:03:42.767Z,47.57
2018-07-09T20:06:10.031Z,48.00
2018-07-09T20:08:42.746Z,47.77
2018-07-09T20:11:15.342Z,47.50
2018-07-09T20:13:51.691Z,47.17
2018-07-09T20:16:24.240Z,47.26
2018-07-09T20:18:53.134Z,48.09
2018-07-09T20:21:20.387Z,48.34
2018-07-09T20:23:47.655Z,48.65
2018-07-09T20:26:14.903Z,48.82
2018-07-09T20:28:42.211Z,49.52
2018-07-09T20:31:09.472Z,49.22
2018-07-09T20:33:36.722Z,49.75
2018-07-09T20:36:04.007Z,50.47
2018-07-09T20:38:31.306Z,50.15
2018-07-09T20:40:58.703Z,50.15
2018-07-09T20:43:26.137Z,50.64
2018-07-09T20:45:53.423Z,51.04
2018-07-09T20:48:20.713Z,51.18
2018-07-09T20:50:47.983Z,51.73
2018-07-09T20:53:15.218Z,51.97
2018-07-09T20:55:42.483Z,53.12
2018-07-09T20:58:09.758Z,54.05
2018-07-09T21:00:37.015Z,53.34
2018-07-09T21:03:06.305Z,53.51
2018-07-09T21:05:33.802Z,53.76
2018-07-09T21:08:01.066Z,54.14
2018-07-09T21:10:28.421Z,53.81
2018-07-09T21:12:57.708Z,54.00
2018-07-09T21:15:26.374Z,53.70
2018-07-09T21:17:53.717Z,53.26
2018-07-09T21:20:21.071Z,54.48
2018-07-09T21:22:48.847Z,54.47
2018-07-09T21:25:16.935Z,54.52
2018-07-09T21:27:44.265Z,54.43
2018-07-09T21:30:11.823Z,54.28
2018-07-09T21:32:39.059Z,52.25
2018-07-09T21:35:06.329Z,51.75
2018-07-09T21:37:33.728Z,51.58
2018-07-09T21:40:01.010Z,51.99
2018-07-09T21:42:28.374Z,53.19
2018-07-09T21:44:55.639Z,52.92
2018-07-09T21:47:23.013Z,52.80
2018-07-09T21:49:50.617Z,53.15
2018-07-09T21:52:17.930Z,53.75
2018-07-09T21:54:45.467Z,54.89
2018-07-09T21:57:12.735Z,54.84
2018-07-09T21:59:39.982Z,54.81
2018-07-09T22:02:07.235Z,55.34
2018-07-09T22:04:34.501Z,54.78
2018-07-09T22:07:02.752Z,54.15
2018-07-09T22:09:30.033Z,54.00
2018-07-09T22:11:57.431Z,54.04
2018-07-09T22:14:24.661Z,53.97
2018-07-09T22:16:51.903Z,53.91
2018-07-09T22:19:19.185Z,54.35
2018-07-09T22:21:46.451Z,53.51
2018-07-09T22:24:13.698Z,53.53
2018-07-09T22:26:40.943Z,52.89
2018-07-09T22:29:08.206Z,53.13
2018-07-09T22:31:36.726Z,53.00
2018-07-09T22:34:05.216Z,53.24
2018-07-09T22:36:33.744Z,53.26
2018-07-09T22:39:02.174Z,54.01
2018-07-09T22:41:30.882Z,55.40
2018-07-09T22:44:10.624Z,54.72
2018-07-09T22:46:39.167Z,53.07
2018-07-09T22:49:07.694Z,54.04
2018-07-09T22:51:36.301Z,55.46
2018-07-09T22:54:05.028Z,56.27
2018-07-09T22:56:33.707Z,58.49
2018-07-09T22:59:02.260Z,61.12
2018-07-09T23:01:30.732Z,61.16
2018-07-09T23:03:59.207Z,62.19
2018-07-09T23:06:27.823Z,62.57
2018-07-09T23:09:06.210Z,63.01
2018-07-09T23:13:53.734Z,64.18
2018-07-09T23:16:45.738Z,62.36
2018-07-09T23:19:27.339Z,65.14
2018-07-09T23:22:07.068Z,66.18
2018-07-09T23:24:34.535Z,66.76
2018-07-09T23:27:01.785Z,66.81
2018-07-09T23:29:29.053Z,66.88
2018-07-09T23:31:56.286Z,66.76
2018-07-09T23:34:23.552Z,67.27
2018-07-09T23:36:50.786Z,66.88
2018-07-09T23:39:18.086Z,67.08
2018-07-09T23:41:45.411Z,67.10
2018-07-09T23:44:12.671Z,67.78
2018-07-09T23:46:39.904Z,68.05
2018-07-09T23:49:07.191Z,68.68
2018-07-09T23:51:34.553Z,69.15
2018-07-09T23:54:01.840Z,69.13
2018-07-09T23:59:42.768Z,69.85
